sensor_id;sensor_type;location;lat;lon;timestamp;P1;durP1;ratioP1;P2;durP2;ratioP2
64791;SDS011;51226;47.504;19.074;2023-12-07T00:00:39;8.43;;;7.62;;
64791;SDS011;51226;47.504;19.074;2023-12-07T00:04:03;9.43;;;7.10;;
64791;SDS011;51226;47.504;19.074;2023-12-07T00:10:09;7.47;;;6.47;;
64791;SDS011;51226;47.504;19.074;2023-12-07T00:13:12;7.65;;;6.80;;
64791;SDS011;51226;47.504;19.074;2023-12-07T00:16:15;7.07;;;6.37;;
64791;SDS011;51226;47.504;19.074;2023-12-07T00:19:18;6.35;;;5.62;;
64791;SDS011;51226;47.504;19.074;2023-12-07T00:22:21;6.12;;;5.53;;
64791;SDS011;51226;47.504;19.074;2023-12-07T00:25:24;6.32;;;5.68;;
64791;SDS011;51226;47.504;19.074;2023-12-07T00:28:28;6.60;;;5.97;;
64791;SDS011;51226;47.504;19.074;2023-12-07T00:31:31;6.55;;;5.55;;
64791;SDS011;51226;47.504;19.074;2023-12-07T00:34:34;6.75;;;5.75;;
64791;SDS011;51226;47.504;19.074;2023-12-07T00:37:37;6.00;;;5.40;;
64791;SDS011;51226;47.504;19.074;2023-12-07T00:40:40;5.43;;;4.90;;
64791;SDS011;51226;47.504;19.074;2023-12-07T00:43:43;6.03;;;5.50;;
64791;SDS011;51226;47.504;19.074;2023-12-07T00:46:46;5.87;;;5.07;;
64791;SDS011;51226;47.504;19.074;2023-12-07T00:49:49;6.05;;;5.47;;
64791;SDS011;51226;47.504;19.074;2023-12-07T00:52:52;6.70;;;5.35;;
64791;SDS011;51226;47.504;19.074;2023-12-07T00:55:55;5.65;;;5.15;;
64791;SDS011;51226;47.504;19.074;2023-12-07T00:58:58;5.82;;;5.20;;
64791;SDS011;51226;47.504;19.074;2023-12-07T01:02:01;6.47;;;5.87;;
64791;SDS011;51226;47.504;19.074;2023-12-07T01:05:04;7.40;;;5.82;;
64791;SDS011;51226;47.504;19.074;2023-12-07T01:08:08;7.43;;;5.78;;
64791;SDS011;51226;47.504;19.074;2023-12-07T01:11:11;6.20;;;5.60;;
64791;SDS011;51226;47.504;19.074;2023-12-07T01:14:14;7.00;;;6.28;;
64791;SDS011;51226;47.504;19.074;2023-12-07T01:17:17;5.80;;;5.30;;
64791;SDS011;51226;47.504;19.074;2023-12-07T01:20:20;6.30;;;5.70;;
64791;SDS011;51226;47.504;19.074;2023-12-07T01:23:23;6.85;;;6.00;;
64791;SDS011;51226;47.504;19.074;2023-12-07T01:26:26;5.05;;;4.65;;
64791;SDS011;51226;47.504;19.074;2023-12-07T01:29:29;5.03;;;4.62;;
64791;SDS011;51226;47.504;19.074;2023-12-07T01:32:32;4.30;;;3.90;;
64791;SDS011;51226;47.504;19.074;2023-12-07T01:35:35;3.53;;;3.10;;
64791;SDS011;51226;47.504;19.074;2023-12-07T01:38:38;3.03;;;2.75;;
64791;SDS011;51226;47.504;19.074;2023-12-07T01:41:41;2.83;;;2.62;;
64791;SDS011;51226;47.504;19.074;2023-12-07T01:44:44;3.28;;;2.70;;
64791;SDS011;51226;47.504;19.074;2023-12-07T01:47:47;2.50;;;2.30;;
64791;SDS011;51226;47.504;19.074;2023-12-07T01:50:53;2.50;;;2.30;;
64791;SDS011;51226;47.504;19.074;2023-12-07T01:53:57;2.45;;;2.30;;
64791;SDS011;51226;47.504;19.074;2023-12-07T01:57:00;2.45;;;2.25;;
64791;SDS011;51226;47.504;19.074;2023-12-07T02:00:04;2.35;;;2.15;;
64791;SDS011;51226;47.504;19.074;2023-12-07T02:03:08;2.72;;;2.53;;
64791;SDS011;51226;47.504;19.074;2023-12-07T02:06:11;2.53;;;2.33;;
64791;SDS011;51226;47.504;19.074;2023-12-07T02:09:15;2.60;;;2.40;;
64791;SDS011;51226;47.504;19.074;2023-12-07T02:12:19;2.95;;;2.75;;
64791;SDS011;51226;47.504;19.074;2023-12-07T02:15:23;3.05;;;2.75;;
64791;SDS011;51226;47.504;19.074;2023-12-07T02:21:45;4.30;;;3.05;;
64791;SDS011;51226;47.504;19.074;2023-12-07T02:25:09;2.95;;;2.75;;
64791;SDS011;51226;47.504;19.074;2023-12-07T02:28:13;3.42;;;3.15;;
64791;SDS011;51226;47.504;19.074;2023-12-07T02:31:17;3.60;;;3.30;;
64791;SDS011;51226;47.504;19.074;2023-12-07T02:34:20;3.28;;;2.97;;
64791;SDS011;51226;47.504;19.074;2023-12-07T02:37:24;3.03;;;2.83;;
64791;SDS011;51226;47.504;19.074;2023-12-07T02:40:30;2.80;;;2.60;;
64791;SDS011;51226;47.504;19.074;2023-12-07T02:43:34;3.28;;;3.08;;
64791;SDS011;51226;47.504;19.074;2023-12-07T02:46:37;4.65;;;3.05;;
64791;SDS011;51226;47.504;19.074;2023-12-07T02:49:40;3.92;;;3.62;;
64791;SDS011;51226;47.504;19.074;2023-12-07T02:52:43;3.20;;;2.90;;
64791;SDS011;51226;47.504;19.074;2023-12-07T02:55:46;3.15;;;2.85;;
64791;SDS011;51226;47.504;19.074;2023-12-07T02:58:49;3.62;;;3.37;;
64791;SDS011;51226;47.504;19.074;2023-12-07T03:01:52;3.25;;;2.95;;
64791;SDS011;51226;47.504;19.074;2023-12-07T03:04:55;3.75;;;3.45;;
64791;SDS011;51226;47.504;19.074;2023-12-07T03:07:58;4.43;;;3.42;;
64791;SDS011;51226;47.504;19.074;2023-12-07T03:11:00;4.05;;;3.53;;
64791;SDS011;51226;47.504;19.074;2023-12-07T03:14:03;3.42;;;3.12;;
64791;SDS011;51226;47.504;19.074;2023-12-07T03:17:06;3.42;;;3.12;;
64791;SDS011;51226;47.504;19.074;2023-12-07T03:20:09;4.53;;;3.35;;
64791;SDS011;51226;47.504;19.074;2023-12-07T03:23:13;3.35;;;3.12;;
64791;SDS011;51226;47.504;19.074;2023-12-07T03:26:15;3.15;;;2.85;;
64791;SDS011;51226;47.504;19.074;2023-12-07T03:29:18;2.90;;;2.70;;
64791;SDS011;51226;47.504;19.074;2023-12-07T03:32:21;3.08;;;2.87;;
64791;SDS011;51226;47.504;19.074;2023-12-07T03:35:25;3.17;;;2.97;;
64791;SDS011;51226;47.504;19.074;2023-12-07T03:38:28;3.33;;;3.05;;
64791;SDS011;51226;47.504;19.074;2023-12-07T03:41:31;3.03;;;2.83;;
64791;SDS011;51226;47.504;19.074;2023-12-07T03:44:34;2.92;;;2.72;;
64791;SDS011;51226;47.504;19.074;2023-12-07T03:47:37;3.12;;;2.60;;
64791;SDS011;51226;47.504;19.074;2023-12-07T03:50:40;3.10;;;2.80;;
64791;SDS011;51226;47.504;19.074;2023-12-07T03:53:43;3.10;;;2.85;;
64791;SDS011;51226;47.504;19.074;2023-12-07T03:56:46;8.18;;;5.75;;
64791;SDS011;51226;47.504;19.074;2023-12-07T03:59:49;11.68;;;7.80;;
64791;SDS011;51226;47.504;19.074;2023-12-07T04:02:52;3.62;;;3.33;;
64791;SDS011;51226;47.504;19.074;2023-12-07T04:05:55;3.12;;;2.83;;
64791;SDS011;51226;47.504;19.074;2023-12-07T04:08:58;2.75;;;2.55;;
64791;SDS011;51226;47.504;19.074;2023-12-07T04:12:01;3.10;;;2.90;;
64791;SDS011;51226;47.504;19.074;2023-12-07T04:15:04;3.05;;;2.85;;
64791;SDS011;51226;47.504;19.074;2023-12-07T04:18:08;2.90;;;2.60;;
64791;SDS011;51226;47.504;19.074;2023-12-07T04:21:11;2.97;;;2.78;;
64791;SDS011;51226;47.504;19.074;2023-12-07T04:24:14;2.75;;;2.53;;
64791;SDS011;51226;47.504;19.074;2023-12-07T04:27:17;2.80;;;2.50;;
64791;SDS011;51226;47.504;19.074;2023-12-07T04:30:20;2.87;;;2.60;;
64791;SDS011;51226;47.504;19.074;2023-12-07T04:33:23;2.63;;;2.40;;
64791;SDS011;51226;47.504;19.074;2023-12-07T04:36:26;2.75;;;2.55;;
64791;SDS011;51226;47.504;19.074;2023-12-07T04:39:29;17.70;;;12.17;;
64791;SDS011;51226;47.504;19.074;2023-12-07T04:42:32;14.35;;;8.98;;
64791;SDS011;51226;47.504;19.074;2023-12-07T04:45:34;4.78;;;3.92;;
64791;SDS011;51226;47.504;19.074;2023-12-07T04:48:38;2.75;;;2.55;;
64791;SDS011;51226;47.504;19.074;2023-12-07T04:51:40;2.50;;;2.30;;
64791;SDS011;51226;47.504;19.074;2023-12-07T04:54:45;2.53;;;2.42;;
64791;SDS011;51226;47.504;19.074;2023-12-07T04:57:47;2.50;;;2.30;;
64791;SDS011;51226;47.504;19.074;2023-12-07T05:00:50;2.60;;;2.40;;
64791;SDS011;51226;47.504;19.074;2023-12-07T05:03:53;2.73;;;2.53;;
64791;SDS011;51226;47.504;19.074;2023-12-07T05:06:56;2.83;;;2.62;;
64791;SDS011;51226;47.504;19.074;2023-12-07T05:09:59;2.50;;;2.30;;
64791;SDS011;51226;47.504;19.074;2023-12-07T05:13:02;2.30;;;2.20;;
64791;SDS011;51226;47.504;19.074;2023-12-07T05:16:05;2.37;;;2.17;;
64791;SDS011;51226;47.504;19.074;2023-12-07T05:22:11;2.53;;;2.10;;
64791;SDS011;51226;47.504;19.074;2023-12-07T05:25:14;2.45;;;2.25;;
64791;SDS011;51226;47.504;19.074;2023-12-07T05:28:17;2.17;;;2.00;;
64791;SDS011;51226;47.504;19.074;2023-12-07T05:31:20;2.50;;;2.30;;
64791;SDS011;51226;47.504;19.074;2023-12-07T05:34:23;2.23;;;2.10;;
64791;SDS011;51226;47.504;19.074;2023-12-07T05:37:26;2.97;;;2.33;;
64791;SDS011;51226;47.504;19.074;2023-12-07T05:40:29;2.30;;;2.10;;
64791;SDS011;51226;47.504;19.074;2023-12-07T05:43:33;2.75;;;2.20;;
64791;SDS011;51226;47.504;19.074;2023-12-07T05:46:36;2.35;;;2.15;;
64791;SDS011;51226;47.504;19.074;2023-12-07T05:49:39;2.58;;;2.22;;
64791;SDS011;51226;47.504;19.074;2023-12-07T05:52:42;2.60;;;2.40;;
64791;SDS011;51226;47.504;19.074;2023-12-07T05:55:45;2.62;;;2.20;;
64791;SDS011;51226;47.504;19.074;2023-12-07T05:58:49;3.30;;;2.75;;
64791;SDS011;51226;47.504;19.074;2023-12-07T06:01:52;2.87;;;2.62;;
64791;SDS011;51226;47.504;19.074;2023-12-07T06:04:56;4.18;;;2.80;;
64791;SDS011;51226;47.504;19.074;2023-12-07T06:07:59;3.30;;;3.00;;
64791;SDS011;51226;47.504;19.074;2023-12-07T06:11:02;3.58;;;2.87;;
64791;SDS011;51226;47.504;19.074;2023-12-07T06:14:05;2.65;;;2.45;;
64791;SDS011;51226;47.504;19.074;2023-12-07T06:17:09;3.30;;;3.00;;
64791;SDS011;51226;47.504;19.074;2023-12-07T06:20:11;3.10;;;2.90;;
64791;SDS011;51226;47.504;19.074;2023-12-07T06:23:14;3.70;;;3.40;;
64791;SDS011;51226;47.504;19.074;2023-12-07T06:26:17;3.65;;;3.05;;
64791;SDS011;51226;47.504;19.074;2023-12-07T06:29:20;3.85;;;3.55;;
64791;SDS011;51226;47.504;19.074;2023-12-07T06:32:23;4.00;;;3.20;;
64791;SDS011;51226;47.504;19.074;2023-12-07T06:38:29;3.20;;;2.72;;
64791;SDS011;51226;47.504;19.074;2023-12-07T06:41:33;3.33;;;3.12;;
64791;SDS011;51226;47.504;19.074;2023-12-07T06:44:35;4.00;;;3.60;;
64791;SDS011;51226;47.504;19.074;2023-12-07T06:47:38;4.55;;;3.97;;
64791;SDS011;51226;47.504;19.074;2023-12-07T06:50:41;5.25;;;4.32;;
64791;SDS011;51226;47.504;19.074;2023-12-07T06:53:44;5.85;;;5.25;;
64791;SDS011;51226;47.504;19.074;2023-12-07T06:56:47;6.37;;;5.40;;
64791;SDS011;51226;47.504;19.074;2023-12-07T06:59:50;6.30;;;5.70;;
64791;SDS011;51226;47.504;19.074;2023-12-07T07:02:53;5.75;;;5.12;;
64791;SDS011;51226;47.504;19.074;2023-12-07T07:05:56;6.72;;;6.03;;
64791;SDS011;51226;47.504;19.074;2023-12-07T07:08:59;7.40;;;6.70;;
64791;SDS011;51226;47.504;19.074;2023-12-07T07:12:02;7.15;;;6.45;;
64791;SDS011;51226;47.504;19.074;2023-12-07T07:15:06;7.53;;;6.78;;
64791;SDS011;51226;47.504;19.074;2023-12-07T07:18:11;6.82;;;6.22;;
64791;SDS011;51226;47.504;19.074;2023-12-07T07:21:14;7.70;;;6.90;;
64791;SDS011;51226;47.504;19.074;2023-12-07T07:24:17;7.55;;;6.85;;
64791;SDS011;51226;47.504;19.074;2023-12-07T07:27:19;7.78;;;7.07;;
64791;SDS011;51226;47.504;19.074;2023-12-07T07:30:22;7.85;;;6.95;;
64791;SDS011;51226;47.504;19.074;2023-12-07T07:33:25;7.65;;;6.95;;
64791;SDS011;51226;47.504;19.074;2023-12-07T07:36:28;8.23;;;7.05;;
64791;SDS011;51226;47.504;19.074;2023-12-07T07:39:32;8.02;;;7.22;;
64791;SDS011;51226;47.504;19.074;2023-12-07T07:42:35;7.97;;;6.68;;
64791;SDS011;51226;47.504;19.074;2023-12-07T07:45:38;7.40;;;6.47;;
64791;SDS011;51226;47.504;19.074;2023-12-07T07:48:41;8.77;;;7.87;;
64791;SDS011;51226;47.504;19.074;2023-12-07T07:51:44;7.78;;;6.82;;
64791;SDS011;51226;47.504;19.074;2023-12-07T07:54:47;8.52;;;7.60;;
64791;SDS011;51226;47.504;19.074;2023-12-07T07:57:50;8.43;;;7.62;;
64791;SDS011;51226;47.504;19.074;2023-12-07T08:00:53;8.25;;;7.15;;
64791;SDS011;51226;47.504;19.074;2023-12-07T08:06:59;10.02;;;7.62;;
64791;SDS011;51226;47.504;19.074;2023-12-07T08:10:02;9.57;;;8.07;;
64791;SDS011;51226;47.504;19.074;2023-12-07T08:13:06;8.70;;;7.80;;
64791;SDS011;51226;47.504;19.074;2023-12-07T08:16:10;8.50;;;7.55;;
64791;SDS011;51226;47.504;19.074;2023-12-07T08:19:13;9.33;;;7.90;;
64791;SDS011;51226;47.504;19.074;2023-12-07T08:22:16;8.38;;;7.57;;
64791;SDS011;51226;47.504;19.074;2023-12-07T08:25:19;9.73;;;8.55;;
64791;SDS011;51226;47.504;19.074;2023-12-07T08:28:22;8.57;;;7.35;;
64791;SDS011;51226;47.504;19.074;2023-12-07T08:31:25;9.70;;;8.00;;
64791;SDS011;51226;47.504;19.074;2023-12-07T08:34:29;9.73;;;8.23;;
64791;SDS011;51226;47.504;19.074;2023-12-07T08:37:32;8.18;;;7.37;;
64791;SDS011;51226;47.504;19.074;2023-12-07T08:40:38;9.57;;;7.37;;
64791;SDS011;51226;47.504;19.074;2023-12-07T08:43:41;9.25;;;7.68;;
64791;SDS011;51226;47.504;19.074;2023-12-07T08:46:45;10.85;;;8.02;;
64791;SDS011;51226;47.504;19.074;2023-12-07T08:49:48;9.02;;;7.57;;
64791;SDS011;51226;47.504;19.074;2023-12-07T08:52:54;10.18;;;8.40;;
64791;SDS011;51226;47.504;19.074;2023-12-07T08:56:05;9.57;;;8.48;;
64791;SDS011;51226;47.504;19.074;2023-12-07T08:59:09;9.10;;;8.00;;
64791;SDS011;51226;47.504;19.074;2023-12-07T09:02:12;10.67;;;8.77;;
64791;SDS011;51226;47.504;19.074;2023-12-07T09:05:15;11.35;;;8.48;;
64791;SDS011;51226;47.504;19.074;2023-12-07T09:08:18;11.02;;;8.85;;
64791;SDS011;51226;47.504;19.074;2023-12-07T09:11:21;10.00;;;8.25;;
64791;SDS011;51226;47.504;19.074;2023-12-07T09:14:24;10.50;;;8.15;;
64791;SDS011;51226;47.504;19.074;2023-12-07T09:17:29;8.82;;;7.65;;
64791;SDS011;51226;47.504;19.074;2023-12-07T09:20:31;9.47;;;8.50;;
64791;SDS011;51226;47.504;19.074;2023-12-07T09:23:35;9.65;;;8.40;;
64791;SDS011;51226;47.504;19.074;2023-12-07T09:26:39;10.98;;;8.57;;
64791;SDS011;51226;47.504;19.074;2023-12-07T09:29:45;10.57;;;8.48;;
64791;SDS011;51226;47.504;19.074;2023-12-07T09:32:49;11.82;;;8.43;;
64791;SDS011;51226;47.504;19.074;2023-12-07T09:35:53;9.30;;;8.13;;
64791;SDS011;51226;47.504;19.074;2023-12-07T09:41:59;10.52;;;8.30;;
64791;SDS011;51226;47.504;19.074;2023-12-07T09:45:01;8.63;;;7.73;;
64791;SDS011;51226;47.504;19.074;2023-12-07T09:51:08;10.37;;;7.13;;
64791;SDS011;51226;47.504;19.074;2023-12-07T09:54:12;8.82;;;7.90;;
64791;SDS011;51226;47.504;19.074;2023-12-07T10:00:18;9.32;;;7.60;;
64791;SDS011;51226;47.504;19.074;2023-12-07T10:03:22;10.88;;;8.25;;
64791;SDS011;51226;47.504;19.074;2023-12-07T10:06:26;8.52;;;7.32;;
64791;SDS011;51226;47.504;19.074;2023-12-07T10:09:43;9.07;;;7.97;;
64791;SDS011;51226;47.504;19.074;2023-12-07T10:15:50;9.57;;;7.45;;
64791;SDS011;51226;47.504;19.074;2023-12-07T10:19:14;10.65;;;8.27;;
64791;SDS011;51226;47.504;19.074;2023-12-07T10:22:34;10.60;;;9.50;;
64791;SDS011;51226;47.504;19.074;2023-12-07T10:25:38;11.85;;;8.60;;
64791;SDS011;51226;47.504;19.074;2023-12-07T10:28:43;9.85;;;8.93;;
64791;SDS011;51226;47.504;19.074;2023-12-07T10:31:47;9.50;;;8.60;;
64791;SDS011;51226;47.504;19.074;2023-12-07T10:34:50;10.23;;;8.27;;
64791;SDS011;51226;47.504;19.074;2023-12-07T10:37:53;9.77;;;8.88;;
64791;SDS011;51226;47.504;19.074;2023-12-07T10:41:03;9.00;;;8.07;;
64791;SDS011;51226;47.504;19.074;2023-12-07T10:44:11;10.70;;;8.60;;
64791;SDS011;51226;47.504;19.074;2023-12-07T10:47:17;10.07;;;8.77;;
64791;SDS011;51226;47.504;19.074;2023-12-07T10:50:23;9.32;;;8.30;;
64791;SDS011;51226;47.504;19.074;2023-12-07T10:53:27;8.68;;;7.78;;
64791;SDS011;51226;47.504;19.074;2023-12-07T10:56:43;10.52;;;9.02;;
64791;SDS011;51226;47.504;19.074;2023-12-07T10:59:47;9.45;;;8.45;;
64791;SDS011;51226;47.504;19.074;2023-12-07T11:02:53;9.45;;;8.32;;
64791;SDS011;51226;47.504;19.074;2023-12-07T11:09:00;9.77;;;8.40;;
64791;SDS011;51226;47.504;19.074;2023-12-07T11:12:10;9.55;;;8.60;;
64791;SDS011;51226;47.504;19.074;2023-12-07T11:15:21;10.10;;;8.63;;
64791;SDS011;51226;47.504;19.074;2023-12-07T11:18:25;9.68;;;8.68;;
64791;SDS011;51226;47.504;19.074;2023-12-07T11:21:29;10.07;;;8.82;;
64791;SDS011;51226;47.504;19.074;2023-12-07T11:24:32;11.25;;;9.55;;
64791;SDS011;51226;47.504;19.074;2023-12-07T11:27:35;9.68;;;8.68;;
64791;SDS011;51226;47.504;19.074;2023-12-07T11:30:46;8.98;;;8.05;;
64791;SDS011;51226;47.504;19.074;2023-12-07T11:33:49;10.00;;;9.00;;
64791;SDS011;51226;47.504;19.074;2023-12-07T11:36:52;9.77;;;8.77;;
64791;SDS011;51226;47.504;19.074;2023-12-07T11:39:55;10.13;;;8.40;;
64791;SDS011;51226;47.504;19.074;2023-12-07T11:42:59;10.80;;;9.38;;
64791;SDS011;51226;47.504;19.074;2023-12-07T11:46:02;11.00;;;9.85;;
64791;SDS011;51226;47.504;19.074;2023-12-07T11:49:05;11.05;;;9.95;;
64791;SDS011;51226;47.504;19.074;2023-12-07T11:52:29;11.80;;;9.45;;
64791;SDS011;51226;47.504;19.074;2023-12-07T11:55:32;11.88;;;10.10;;
64791;SDS011;51226;47.504;19.074;2023-12-07T11:58:36;11.43;;;10.23;;
64791;SDS011;51226;47.504;19.074;2023-12-07T12:01:46;12.88;;;10.45;;
64791;SDS011;51226;47.504;19.074;2023-12-07T12:04:50;13.13;;;10.35;;
64791;SDS011;51226;47.504;19.074;2023-12-07T12:07:53;12.25;;;10.52;;
64791;SDS011;51226;47.504;19.074;2023-12-07T12:10:56;12.10;;;10.77;;
64791;SDS011;51226;47.504;19.074;2023-12-07T12:14:01;13.23;;;11.80;;
64791;SDS011;51226;47.504;19.074;2023-12-07T12:17:05;13.18;;;11.60;;
64791;SDS011;51226;47.504;19.074;2023-12-07T12:20:08;14.68;;;12.02;;
64791;SDS011;51226;47.504;19.074;2023-12-07T12:23:13;13.73;;;11.80;;
64791;SDS011;51226;47.504;19.074;2023-12-07T12:26:16;14.95;;;11.77;;
64791;SDS011;51226;47.504;19.074;2023-12-07T12:29:20;13.38;;;11.52;;
64791;SDS011;51226;47.504;19.074;2023-12-07T12:32:44;13.98;;;11.73;;
64791;SDS011;51226;47.504;19.074;2023-12-07T12:35:59;12.77;;;11.45;;
64791;SDS011;51226;47.504;19.074;2023-12-07T12:39:06;13.90;;;12.20;;
64791;SDS011;51226;47.504;19.074;2023-12-07T12:42:24;13.62;;;12.07;;
64791;SDS011;51226;47.504;19.074;2023-12-07T12:45:27;14.10;;;12.40;;
64791;SDS011;51226;47.504;19.074;2023-12-07T12:48:31;14.70;;;12.48;;
64791;SDS011;51226;47.504;19.074;2023-12-07T12:51:33;14.35;;;12.37;;
64791;SDS011;51226;47.504;19.074;2023-12-07T12:54:42;13.95;;;11.65;;
64791;SDS011;51226;47.504;19.074;2023-12-07T12:57:46;14.15;;;12.68;;
64791;SDS011;51226;47.504;19.074;2023-12-07T13:00:49;15.25;;;13.57;;
64791;SDS011;51226;47.504;19.074;2023-12-07T13:03:52;18.42;;;14.27;;
64791;SDS011;51226;47.504;19.074;2023-12-07T13:06:55;13.38;;;11.98;;
64791;SDS011;51226;47.504;19.074;2023-12-07T13:09:58;15.90;;;12.77;;
64791;SDS011;51226;47.504;19.074;2023-12-07T13:13:01;15.15;;;12.45;;
64791;SDS011;51226;47.504;19.074;2023-12-07T13:16:06;14.93;;;12.60;;
64791;SDS011;51226;47.504;19.074;2023-12-07T13:19:09;14.95;;;12.68;;
64791;SDS011;51226;47.504;19.074;2023-12-07T13:22:12;14.85;;;12.77;;
64791;SDS011;51226;47.504;19.074;2023-12-07T13:25:15;16.92;;;13.45;;
64791;SDS011;51226;47.504;19.074;2023-12-07T13:28:18;16.37;;;14.13;;
64791;SDS011;51226;47.504;19.074;2023-12-07T13:31:21;18.27;;;14.77;;
64791;SDS011;51226;47.504;19.074;2023-12-07T13:37:31;15.70;;;14.02;;
64791;SDS011;51226;47.504;19.074;2023-12-07T13:40:35;17.17;;;15.35;;
64791;SDS011;51226;47.504;19.074;2023-12-07T13:43:40;17.40;;;14.15;;
64791;SDS011;51226;47.504;19.074;2023-12-07T13:46:44;17.55;;;15.15;;
64791;SDS011;51226;47.504;19.074;2023-12-07T13:49:49;19.17;;;15.88;;
64791;SDS011;51226;47.504;19.074;2023-12-07T13:52:52;15.77;;;14.18;;
64791;SDS011;51226;47.504;19.074;2023-12-07T13:55:56;17.40;;;15.25;;
64791;SDS011;51226;47.504;19.074;2023-12-07T13:58:58;16.87;;;14.83;;
64791;SDS011;51226;47.504;19.074;2023-12-07T14:02:01;15.75;;;14.18;;
64791;SDS011;51226;47.504;19.074;2023-12-07T14:05:05;17.08;;;14.45;;
64791;SDS011;51226;47.504;19.074;2023-12-07T14:08:08;17.98;;;14.85;;
64791;SDS011;51226;47.504;19.074;2023-12-07T14:11:12;15.95;;;14.15;;
64791;SDS011;51226;47.504;19.074;2023-12-07T14:14:15;16.62;;;14.25;;
64791;SDS011;51226;47.504;19.074;2023-12-07T14:17:19;15.93;;;13.82;;
64791;SDS011;51226;47.504;19.074;2023-12-07T14:20:23;15.77;;;14.07;;
64791;SDS011;51226;47.504;19.074;2023-12-07T14:23:48;16.35;;;14.27;;
64791;SDS011;51226;47.504;19.074;2023-12-07T14:26:58;20.10;;;14.65;;
64791;SDS011;51226;47.504;19.074;2023-12-07T14:33:04;19.12;;;15.98;;
64791;SDS011;51226;47.504;19.074;2023-12-07T14:36:08;18.87;;;14.63;;
64791;SDS011;51226;47.504;19.074;2023-12-07T14:39:13;20.62;;;15.43;;
64791;SDS011;51226;47.504;19.074;2023-12-07T14:42:22;18.10;;;16.10;;
64791;SDS011;51226;47.504;19.074;2023-12-07T14:45:25;19.23;;;16.15;;
64791;SDS011;51226;47.504;19.074;2023-12-07T14:48:29;27.48;;;19.08;;
64791;SDS011;51226;47.504;19.074;2023-12-07T14:51:32;25.25;;;20.10;;
64791;SDS011;51226;47.504;19.074;2023-12-07T14:54:36;29.90;;;22.37;;
64791;SDS011;51226;47.504;19.074;2023-12-07T14:57:39;27.45;;;18.83;;
64791;SDS011;51226;47.504;19.074;2023-12-07T15:00:42;23.55;;;17.75;;
64791;SDS011;51226;47.504;19.074;2023-12-07T15:03:47;23.02;;;20.37;;
64791;SDS011;51226;47.504;19.074;2023-12-07T15:06:50;24.98;;;18.27;;
64791;SDS011;51226;47.504;19.074;2023-12-07T15:09:53;25.70;;;18.12;;
64791;SDS011;51226;47.504;19.074;2023-12-07T15:12:56;27.95;;;20.52;;
64791;SDS011;51226;47.504;19.074;2023-12-07T15:15:59;28.87;;;21.00;;
64791;SDS011;51226;47.504;19.074;2023-12-07T15:19:02;55.60;;;38.58;;
64791;SDS011;51226;47.504;19.074;2023-12-07T15:22:06;31.20;;;25.12;;
64791;SDS011;51226;47.504;19.074;2023-12-07T15:25:09;28.70;;;21.17;;
64791;SDS011;51226;47.504;19.074;2023-12-07T15:28:14;26.85;;;19.77;;
64791;SDS011;51226;47.504;19.074;2023-12-07T15:31:17;24.60;;;19.62;;
64791;SDS011;51226;47.504;19.074;2023-12-07T15:37:38;22.02;;;18.87;;
64791;SDS011;51226;47.504;19.074;2023-12-07T15:40:42;20.95;;;17.12;;
64791;SDS011;51226;47.504;19.074;2023-12-07T15:43:45;20.35;;;17.85;;
64791;SDS011;51226;47.504;19.074;2023-12-07T15:46:48;19.40;;;17.20;;
64791;SDS011;51226;47.504;19.074;2023-12-07T15:49:51;39.33;;;28.73;;
64791;SDS011;51226;47.504;19.074;2023-12-07T15:55:57;22.65;;;17.98;;
64791;SDS011;51226;47.504;19.074;2023-12-07T15:59:00;19.75;;;16.95;;
64791;SDS011;51226;47.504;19.074;2023-12-07T16:02:04;20.95;;;17.55;;
64791;SDS011;51226;47.504;19.074;2023-12-07T16:08:10;22.43;;;16.43;;
64791;SDS011;51226;47.504;19.074;2023-12-07T16:11:15;29.77;;;21.85;;
64791;SDS011;51226;47.504;19.074;2023-12-07T16:14:18;27.33;;;21.70;;
64791;SDS011;51226;47.504;19.074;2023-12-07T16:20:35;21.63;;;18.57;;
64791;SDS011;51226;47.504;19.074;2023-12-07T16:23:38;23.70;;;19.20;;
64791;SDS011;51226;47.504;19.074;2023-12-07T16:26:40;26.23;;;20.23;;
64791;SDS011;51226;47.504;19.074;2023-12-07T16:32:46;31.52;;;22.10;;
64791;SDS011;51226;47.504;19.074;2023-12-07T16:35:52;32.60;;;23.62;;
64791;SDS011;51226;47.504;19.074;2023-12-07T16:38:56;29.45;;;20.23;;
64791;SDS011;51226;47.504;19.074;2023-12-07T16:42:03;29.15;;;22.02;;
64791;SDS011;51226;47.504;19.074;2023-12-07T16:45:06;24.98;;;18.75;;
64791;SDS011;51226;47.504;19.074;2023-12-07T16:48:10;21.42;;;17.35;;
64791;SDS011;51226;47.504;19.074;2023-12-07T16:51:13;23.05;;;17.70;;
64791;SDS011;51226;47.504;19.074;2023-12-07T16:54:16;19.90;;;16.37;;
64791;SDS011;51226;47.504;19.074;2023-12-07T16:57:19;19.90;;;15.80;;
64791;SDS011;51226;47.504;19.074;2023-12-07T17:00:22;17.87;;;14.70;;
64791;SDS011;51226;47.504;19.074;2023-12-07T17:03:26;18.48;;;14.93;;
64791;SDS011;51226;47.504;19.074;2023-12-07T17:06:30;17.62;;;15.45;;
64791;SDS011;51226;47.504;19.074;2023-12-07T17:09:44;19.58;;;15.40;;
64791;SDS011;51226;47.504;19.074;2023-12-07T17:12:47;19.67;;;15.65;;
64791;SDS011;51226;47.504;19.074;2023-12-07T17:15:50;17.53;;;15.23;;
64791;SDS011;51226;47.504;19.074;2023-12-07T17:18:53;19.58;;;16.35;;
64791;SDS011;51226;47.504;19.074;2023-12-07T17:21:56;18.58;;;15.05;;
64791;SDS011;51226;47.504;19.074;2023-12-07T17:25:00;17.50;;;14.40;;
64791;SDS011;51226;47.504;19.074;2023-12-07T17:28:03;17.55;;;15.00;;
64791;SDS011;51226;47.504;19.074;2023-12-07T17:31:06;16.83;;;14.90;;
64791;SDS011;51226;47.504;19.074;2023-12-07T17:34:09;19.35;;;15.38;;
64791;SDS011;51226;47.504;19.074;2023-12-07T17:37:13;18.37;;;15.68;;
64791;SDS011;51226;47.504;19.074;2023-12-07T17:40:16;17.97;;;15.10;;
64791;SDS011;51226;47.504;19.074;2023-12-07T17:46:21;16.73;;;14.15;;
64791;SDS011;51226;47.504;19.074;2023-12-07T17:49:25;18.17;;;14.85;;
64791;SDS011;51226;47.504;19.074;2023-12-07T17:55:40;18.17;;;15.57;;
64791;SDS011;51226;47.504;19.074;2023-12-07T17:58:43;17.50;;;14.52;;
64791;SDS011;51226;47.504;19.074;2023-12-07T18:01:46;18.67;;;15.25;;
64791;SDS011;51226;47.504;19.074;2023-12-07T18:04:49;18.52;;;15.55;;
64791;SDS011;51226;47.504;19.074;2023-12-07T18:07:52;21.48;;;16.33;;
64791;SDS011;51226;47.504;19.074;2023-12-07T18:10:55;18.75;;;16.30;;
64791;SDS011;51226;47.504;19.074;2023-12-07T18:13:58;18.02;;;15.90;;
64791;SDS011;51226;47.504;19.074;2023-12-07T18:17:01;21.80;;;16.45;;
64791;SDS011;51226;47.504;19.074;2023-12-07T18:20:04;21.58;;;17.42;;
64791;SDS011;51226;47.504;19.074;2023-12-07T18:23:08;19.83;;;17.10;;
64791;SDS011;51226;47.504;19.074;2023-12-07T18:26:11;22.08;;;18.33;;
64791;SDS011;51226;47.504;19.074;2023-12-07T18:32:17;30.30;;;21.95;;
64791;SDS011;51226;47.504;19.074;2023-12-07T18:35:20;23.73;;;18.92;;
64791;SDS011;51226;47.504;19.074;2023-12-07T18:38:23;21.37;;;17.15;;
64791;SDS011;51226;47.504;19.074;2023-12-07T18:41:27;24.10;;;17.42;;
64791;SDS011;51226;47.504;19.074;2023-12-07T18:44:30;21.33;;;17.73;;
64791;SDS011;51226;47.504;19.074;2023-12-07T18:47:33;22.27;;;17.80;;
64791;SDS011;51226;47.504;19.074;2023-12-07T18:50:36;21.75;;;17.37;;
64791;SDS011;51226;47.504;19.074;2023-12-07T18:53:39;21.95;;;18.40;;
64791;SDS011;51226;47.504;19.074;2023-12-07T18:56:45;25.02;;;18.95;;
64791;SDS011;51226;47.504;19.074;2023-12-07T18:59:48;30.60;;;24.75;;